createdAt,value
2023-03-04T00:00:46.507Z,22.50
2023-03-04T00:03:15.774Z,21.40
2023-03-04T00:05:44.167Z,22.00
2023-03-04T00:08:12.240Z,23.50
2023-03-04T00:10:40.205Z,22.80
2023-03-04T00:13:27.504Z,22.30
2023-03-04T00:15:55.571Z,22.30
2023-03-04T00:18:26.238Z,21.20
2023-03-04T00:20:54.279Z,21.90
2023-03-04T00:23:22.268Z,21.40
2023-03-04T00:25:50.129Z,21.80
2023-03-04T00:28:19.196Z,21.30
2023-03-04T00:30:47.233Z,22.20
2023-03-04T00:33:18.080Z,21.60
2023-03-04T00:35:46.587Z,21.60
2023-03-04T00:38:15.222Z,20.90
2023-03-04T00:40:43.891Z,22.00
2023-03-04T00:43:12.730Z,21.90
2023-03-04T00:45:41.831Z,23.40
2023-03-04T00:48:14.803Z,23.10
2023-03-04T00:50:43.500Z,22.70
2023-03-04T00:53:12.011Z,22.20
2023-03-04T00:55:41.632Z,22.00
2023-03-04T00:58:09.811Z,21.90
2023-03-04T01:00:38.936Z,22.30
2023-03-04T01:03:06.991Z,22.40
2023-03-04T01:05:36.148Z,21.20
2023-03-04T01:08:05.563Z,20.70
2023-03-04T01:10:34.773Z,21.80
2023-03-04T01:13:03.872Z,21.50
2023-03-04T01:15:32.519Z,22.10
2023-03-04T01:18:02.983Z,21.30
2023-03-04T01:20:31.211Z,21.60
2023-03-04T01:22:59.310Z,22.50
2023-03-04T01:25:27.546Z,22.20
2023-03-04T01:27:56.093Z,21.10
2023-03-04T01:30:24.316Z,22.20
2023-03-04T01:32:52.246Z,21.30
2023-03-04T01:35:21.806Z,22.00
2023-03-04T01:37:49.947Z,21.90
2023-03-04T01:40:18.344Z,22.90
2023-03-04T01:42:48.428Z,23.40
2023-03-04T01:45:18.248Z,23.20
2023-03-04T01:47:49.137Z,23.70
2023-03-04T01:50:21.056Z,24.00
2023-03-04T01:52:48.995Z,23.80
2023-03-04T01:55:19.116Z,24.70
2023-03-04T01:57:47.860Z,23.70
2023-03-04T02:00:19.771Z,25.20
2023-03-04T02:02:48.771Z,26.10
2023-03-04T02:05:18.120Z,27.00
2023-03-04T02:07:48.564Z,26.50
2023-03-04T02:10:17.250Z,26.60
2023-03-04T02:12:45.649Z,26.90
2023-03-04T02:15:13.588Z,27.10
2023-03-04T02:17:42.328Z,27.70
2023-03-04T02:20:35.021Z,27.30
2023-03-04T02:23:17.002Z,27.10
2023-03-04T02:25:50.995Z,27.20
2023-03-04T02:28:19.266Z,28.20
2023-03-04T02:30:47.471Z,28.30
2023-03-04T02:33:17.780Z,27.90
2023-03-04T02:35:47.152Z,28.00
2023-03-04T02:38:16.625Z,28.40
2023-03-04T02:40:47.895Z,27.10
2023-03-04T02:43:15.937Z,28.50
2023-03-04T02:45:50.677Z,28.60
2023-03-04T02:48:21.705Z,28.20
2023-03-04T02:50:53.324Z,28.10
2023-03-04T02:53:21.981Z,30.10
2023-03-04T02:55:50.280Z,28.20
2023-03-04T02:58:19.421Z,30.00
2023-03-04T03:00:49.863Z,26.70
2023-03-04T03:03:20.306Z,28.30
2023-03-04T03:05:48.770Z,27.50
2023-03-04T03:08:16.902Z,29.00
2023-03-04T03:10:45.061Z,28.90
2023-03-04T03:13:13.717Z,30.60
2023-03-04T03:15:42.812Z,28.00
2023-03-04T03:18:11.286Z,29.20
2023-03-04T03:20:39.636Z,26.70
2023-03-04T03:23:07.890Z,29.50
2023-03-04T03:25:37.581Z,28.80
2023-03-04T03:28:10.207Z,29.10
2023-03-04T03:30:39.489Z,31.00
2023-03-04T03:33:08.025Z,28.00
2023-03-04T03:35:38.439Z,29.40
2023-03-04T03:38:06.798Z,30.20
2023-03-04T03:40:37.021Z,28.90
2023-03-04T03:43:05.056Z,29.30
2023-03-04T03:45:33.228Z,29.10
2023-03-04T03:48:02.106Z,29.70
2023-03-04T03:50:30.247Z,27.20
2023-03-04T03:52:58.611Z,27.50
2023-03-04T03:55:26.989Z,28.30
2023-03-04T03:57:55.072Z,27.70
2023-03-04T04:00:23.191Z,29.80
2023-03-04T04:02:51.677Z,29.00
2023-03-04T04:05:19.756Z,29.00
2023-03-04T04:07:47.628Z,27.00
2023-03-04T04:10:20.539Z,28.00
2023-03-04T04:12:48.856Z,28.20
2023-03-04T04:15:18.444Z,28.40
2023-03-04T04:17:46.344Z,28.80
2023-03-04T04:20:14.232Z,29.50
2023-03-04T04:22:42.879Z,27.40
2023-03-04T04:25:11.051Z,29.10
2023-03-04T04:27:39.411Z,27.90
2023-03-04T04:30:08.047Z,27.80
2023-03-04T04:32:41.417Z,31.30
2023-03-04T04:35:12.907Z,29.30
2023-03-04T04:37:40.874Z,32.20
2023-03-04T04:40:10.284Z,29.10
2023-03-04T04:42:39.138Z,30.50
2023-03-04T04:45:08.126Z,29.30
2023-03-04T04:47:37.532Z,29.70
2023-03-04T04:50:08.260Z,29.70
2023-03-04T04:52:37.569Z,29.50
2023-03-04T04:55:06.126Z,28.30
2023-03-04T04:57:34.849Z,29.10
2023-03-04T05:00:08.353Z,29.00
2023-03-04T05:02:37.542Z,29.40
2023-03-04T05:05:06.519Z,28.60
2023-03-04T05:07:38.354Z,28.30
2023-03-04T05:10:07.327Z,28.20
2023-03-04T05:12:35.453Z,26.50
2023-03-04T05:15:05.589Z,25.00
2023-03-04T05:17:36.236Z,28.80
2023-03-04T05:20:07.330Z,27.10
2023-03-04T05:22:37.654Z,27.90
2023-03-04T05:25:07.073Z,26.20
2023-03-04T05:27:35.735Z,28.60
2023-03-04T05:30:04.469Z,25.00
2023-03-04T05:32:36.123Z,25.30
2023-03-04T05:35:05.099Z,24.80
2023-03-04T05:37:33.207Z,25.10
2023-03-04T05:40:02.889Z,24.80
2023-03-04T05:42:31.361Z,23.20
2023-03-04T05:44:59.434Z,24.60
2023-03-04T05:47:27.466Z,26.10
2023-03-04T05:49:55.738Z,22.60
2023-03-04T05:52:24.302Z,22.80
2023-03-04T05:54:52.294Z,23.10
2023-03-04T05:57:20.313Z,19.90
2023-03-04T05:59:48.377Z,22.70
2023-03-04T06:02:16.286Z,21.40
2023-03-04T06:04:44.647Z,20.60
2023-03-04T06:07:12.653Z,20.30
2023-03-04T06:09:41.437Z,20.60
2023-03-04T06:12:09.379Z,22.00
2023-03-04T06:14:42.370Z,22.80
2023-03-04T06:17:11.639Z,21.20
2023-03-04T06:19:41.726Z,21.10
2023-03-04T06:22:09.951Z,20.50
2023-03-04T06:24:38.164Z,21.60
2023-03-04T06:27:06.592Z,20.50
2023-03-04T06:29:34.715Z,20.10
2023-03-04T06:32:02.729Z,21.60
2023-03-04T06:34:34.140Z,21.50
2023-03-04T06:37:02.193Z,21.00
2023-03-04T06:39:34.996Z,22.10
2023-03-04T06:42:03.129Z,22.40
2023-03-04T06:44:31.935Z,23.70
2023-03-04T06:47:00.361Z,24.30
2023-03-04T06:49:28.551Z,21.60
2023-03-04T06:51:57.113Z,23.00
2023-03-04T06:54:25.715Z,23.20
2023-03-04T06:56:54.446Z,23.00
2023-03-04T06:59:22.377Z,22.60
2023-03-04T07:01:50.669Z,23.20
2023-03-04T07:04:18.816Z,22.60
2023-03-04T07:06:46.898Z,26.00
2023-03-04T07:09:14.944Z,25.20
2023-03-04T07:11:43.887Z,23.60
2023-03-04T07:14:11.878Z,24.40
2023-03-04T07:16:40.585Z,26.30
2023-03-04T07:19:09.040Z,23.80
2023-03-04T07:21:40.850Z,26.80
2023-03-04T07:24:09.066Z,25.20
2023-03-04T07:26:38.358Z,26.50
2023-03-04T07:29:06.319Z,26.00
2023-03-04T07:31:34.921Z,24.90
2023-03-04T07:34:04.743Z,25.80
2023-03-04T07:36:34.380Z,25.80
2023-03-04T07:39:02.572Z,25.30
2023-03-04T07:41:31.607Z,27.50
2023-03-04T07:43:59.601Z,26.60
2023-03-04T07:46:27.670Z,29.20
2023-03-04T07:48:56.246Z,28.10
2023-03-04T07:51:26.108Z,28.30
2023-03-04T07:53:57.458Z,27.30
2023-03-04T07:56:29.660Z,26.50
2023-03-04T07:58:57.915Z,29.30
2023-03-04T08:01:34.127Z,30.30
2023-03-04T08:04:08.183Z,26.90
2023-03-04T08:06:45.050Z,26.90
2023-03-04T08:09:22.485Z,25.50
2023-03-04T08:11:50.947Z,25.50
2023-03-04T08:14:19.036Z,26.40
2023-03-04T08:16:48.727Z,25.60
2023-03-04T08:19:18.049Z,28.40
2023-03-04T08:21:46.151Z,27.90
2023-03-04T08:24:15.976Z,28.70
2023-03-04T08:26:46.459Z,27.60
2023-03-04T08:29:16.580Z,29.90
2023-03-04T08:31:48.750Z,29.60
2023-03-04T08:34:17.884Z,29.10
2023-03-04T08:36:45.816Z,29.20
2023-03-04T08:39:14.644Z,31.60
2023-03-04T08:41:42.659Z,29.50
2023-03-04T08:44:11.036Z,29.00
2023-03-04T08:46:40.141Z,29.00
2023-03-04T08:49:14.579Z,26.70
2023-03-04T08:51:42.999Z,28.40
2023-03-04T08:54:11.172Z,27.80
2023-03-04T08:56:41.346Z,28.90
2023-03-04T08:59:09.415Z,29.10
2023-03-04T09:01:37.551Z,28.50
2023-03-04T09:04:07.013Z,28.10
2023-03-04T09:06:35.439Z,27.50
2023-03-04T09:09:03.897Z,29.40
2023-03-04T09:11:31.978Z,27.50
2023-03-04T09:13:59.981Z,27.70
2023-03-04T09:16:28.896Z,27.70
2023-03-04T09:18:56.997Z,28.50
2023-03-04T09:21:26.544Z,27.30
2023-03-04T09:23:54.697Z,27.10
2023-03-04T09:26:24.452Z,26.20
2023-03-04T09:28:53.258Z,26.20
2023-03-04T09:31:21.684Z,24.80
2023-03-04T09:33:51.468Z,24.90
2023-03-04T09:36:19.756Z,26.00
2023-03-04T09:38:50.825Z,24.70
2023-03-04T09:41:26.761Z,24.90
2023-03-04T09:43:54.769Z,26.20
2023-03-04T09:46:27.862Z,25.80
2023-03-04T09:48:56.191Z,24.60
2023-03-04T09:51:36.538Z,25.40
2023-03-04T09:54:11.788Z,24.60
2023-03-04T09:56:40.695Z,23.70
2023-03-04T10:01:55.037Z,21.80
2023-03-04T10:04:40.741Z,23.80
2023-03-04T10:07:34.625Z,22.40
2023-03-04T10:10:10.756Z,22.80
2023-03-04T10:12:40.283Z,23.00
2023-03-04T10:15:31.311Z,24.50
2023-03-04T10:18:20.617Z,22.00
2023-03-04T10:20:49.649Z,23.00
2023-03-04T10:23:37.932Z,21.60
2023-03-04T10:26:15.193Z,22.50
2023-03-04T10:28:43.320Z,22.10
2023-03-04T10:31:11.415Z,23.00
2023-03-04T10:33:40.107Z,23.10
2023-03-04T10:36:29.868Z,22.40
2023-03-04T10:39:08.030Z,22.90
2023-03-04T10:41:36.172Z,23.10
2023-03-04T10:44:11.332Z,22.30
2023-03-04T10:46:42.982Z,22.40
2023-03-04T10:49:11.738Z,22.90
2023-03-04T10:52:26.075Z,22.50
2023-03-04T10:54:55.072Z,21.00
2023-03-04T10:57:36.507Z,23.80
2023-03-04T11:00:17.444Z,23.10
2023-03-04T11:02:46.452Z,23.00
2023-03-04T11:05:18.974Z,20.80
2023-03-04T11:07:55.098Z,19.60
2023-03-04T11:10:36.566Z,20.60
2023-03-04T11:13:11.902Z,22.50
2023-03-04T11:16:01.162Z,20.80
2023-03-04T11:18:40.743Z,20.80
2023-03-04T11:21:09.034Z,21.20
2023-03-04T11:23:47.632Z,21.10
2023-03-04T11:26:31.790Z,20.70
2023-03-04T11:29:03.666Z,21.50
2023-03-04T11:31:35.152Z,19.90
2023-03-04T11:34:08.235Z,19.60
2023-03-04T11:36:55.166Z,20.40
2023-03-04T11:39:31.856Z,20.00
2023-03-04T11:42:15.513Z,21.60
2023-03-04T11:44:44.013Z,20.30
2023-03-04T11:47:14.943Z,22.60
2023-03-04T11:50:20.534Z,21.80
2023-03-04T11:53:02.078Z,21.20
2023-03-04T11:55:36.145Z,21.70
2023-03-04T11:58:29.679Z,21.60
2023-03-04T12:01:10.602Z,22.80
2023-03-04T12:03:44.987Z,21.40
2023-03-04T12:06:17.475Z,22.00
2023-03-04T12:08:57.769Z,22.90
2023-03-04T12:11:50.224Z,21.60
2023-03-04T12:14:28.082Z,21.00
2023-03-04T12:17:14.917Z,20.30
2023-03-04T12:20:08.767Z,21.10
2023-03-04T12:22:36.904Z,20.80
2023-03-04T12:25:10.942Z,19.90
2023-03-04T12:27:42.742Z,20.30
2023-03-04T12:30:20.432Z,21.10
2023-03-04T12:33:14.206Z,21.40
2023-03-04T12:36:10.645Z,20.30
2023-03-04T12:38:53.888Z,20.30
2023-03-04T12:41:28.721Z,18.90
2023-03-04T12:44:20.922Z,20.40
2023-03-04T12:47:12.829Z,20.30
2023-03-04T12:50:20.520Z,21.80
2023-03-04T12:52:58.291Z,23.20
2023-03-04T12:55:34.320Z,21.10
2023-03-04T12:58:02.367Z,20.60
2023-03-04T13:01:16.065Z,21.80
2023-03-04T13:04:05.310Z,21.20
2023-03-04T13:06:45.809Z,20.50
2023-03-04T13:09:32.357Z,19.80
2023-03-04T13:12:12.336Z,20.40
2023-03-04T13:14:40.645Z,20.90
2023-03-04T13:17:43.602Z,19.50
2023-03-04T13:20:40.891Z,20.30
2023-03-04T13:23:08.877Z,18.90
2023-03-04T13:25:48.101Z,19.10
2023-03-04T13:28:30.535Z,19.80
2023-03-04T13:30:59.614Z,19.70
2023-03-04T13:33:27.555Z,20.60
2023-03-04T13:36:04.227Z,19.80
2023-03-04T13:38:36.369Z,21.10
2023-03-04T13:41:16.701Z,20.30
2023-03-04T13:43:47.954Z,21.20
2023-03-04T13:46:19.775Z,19.80
2023-03-04T13:48:50.619Z,19.40
2023-03-04T13:51:30.056Z,18.80
2023-03-04T13:53:58.379Z,18.90
2023-03-04T13:56:29.469Z,17.70
2023-03-04T13:59:09.289Z,16.70
2023-03-04T14:01:43.654Z,17.50
2023-03-04T14:04:27.084Z,16.90
2023-03-04T14:06:58.329Z,17.40
2023-03-04T14:09:31.079Z,16.50
2023-03-04T14:12:02.568Z,15.00
2023-03-04T14:14:40.040Z,14.20
2023-03-04T14:17:09.447Z,14.40
2023-03-04T14:19:39.522Z,13.90
2023-03-04T14:22:28.896Z,15.60
2023-03-04T14:24:57.370Z,14.10
2023-03-04T14:27:26.443Z,16.00
2023-03-04T14:30:00.853Z,16.40
2023-03-04T14:32:29.027Z,15.50
2023-03-04T14:35:15.916Z,14.00
2023-03-04T14:37:48.511Z,14.10
2023-03-04T14:40:26.494Z,15.00
2023-03-04T14:43:18.635Z,14.80
2023-03-04T14:45:49.543Z,14.70
2023-03-04T14:48:37.697Z,15.00
2023-03-04T14:51:06.547Z,15.10
2023-03-04T14:53:34.652Z,14.00
2023-03-04T14:56:07.655Z,13.90
2023-03-04T14:58:36.963Z,14.50
2023-03-04T15:01:15.685Z,15.10
2023-03-04T15:03:51.199Z,14.80
2023-03-04T15:06:22.104Z,14.60
2023-03-04T15:09:16.422Z,14.30
2023-03-04T15:11:47.042Z,13.90
2023-03-04T15:15:00.026Z,14.50
2023-03-04T15:17:37.917Z,14.00
2023-03-04T15:20:05.975Z,13.70
2023-03-04T15:22:49.196Z,12.70
2023-03-04T15:25:20.358Z,12.50
2023-03-04T15:27:51.958Z,12.70
2023-03-04T15:30:24.027Z,13.40
2023-03-04T15:32:57.352Z,14.10
2023-03-04T15:35:28.523Z,13.40
2023-03-04T15:37:59.307Z,13.00
2023-03-04T15:40:34.544Z,14.30
2023-03-04T15:43:03.421Z,12.60
2023-03-04T15:45:36.266Z,13.50
2023-03-04T15:48:08.350Z,13.10
2023-03-04T15:50:39.459Z,12.80
2023-03-04T15:53:12.461Z,13.10
2023-03-04T15:55:46.894Z,13.10
2023-03-04T15:58:15.408Z,13.10
2023-03-04T16:00:43.371Z,15.00
2023-03-04T16:03:16.259Z,15.70
2023-03-04T16:05:46.100Z,14.60
2023-03-04T16:08:16.835Z,14.10
2023-03-04T16:10:45.564Z,15.00
2023-03-04T16:13:15.501Z,13.70
2023-03-04T16:15:45.576Z,13.50
2023-03-04T16:18:14.437Z,13.90
2023-03-04T16:20:45.810Z,13.90
2023-03-04T16:23:15.844Z,15.00
2023-03-04T16:25:45.133Z,14.90
2023-03-04T16:28:15.016Z,13.60
2023-03-04T16:30:43.994Z,14.40
2023-03-04T16:33:12.580Z,13.10
2023-03-04T16:35:40.855Z,13.10
2023-03-04T16:38:27.247Z,13.10
2023-03-04T16:41:02.098Z,14.30
2023-03-04T16:43:31.163Z,14.90
2023-03-04T16:45:59.204Z,12.90
2023-03-04T16:48:28.628Z,14.00
2023-03-04T16:50:59.398Z,13.50
2023-03-04T16:53:37.504Z,14.20
2023-03-04T16:56:07.244Z,13.60
2023-03-04T16:58:37.430Z,12.80
2023-03-04T17:01:05.720Z,13.60
2023-03-04T17:03:33.636Z,13.60
2023-03-04T17:06:01.820Z,12.80
2023-03-04T17:08:29.869Z,13.40
2023-03-04T17:10:59.050Z,12.60
2023-03-04T17:13:27.164Z,14.20
2023-03-04T17:16:00.553Z,13.70
2023-03-04T17:18:29.065Z,12.70
2023-03-04T17:21:07.065Z,12.30
2023-03-04T17:23:35.297Z,13.90
2023-03-04T17:26:09.273Z,13.40
2023-03-04T17:28:38.735Z,12.60
2023-03-04T17:31:17.420Z,13.10
2023-03-04T17:33:46.796Z,13.20
2023-03-04T17:36:15.858Z,13.30
2023-03-04T17:38:43.900Z,13.00
2023-03-04T17:41:16.086Z,13.30
2023-03-04T17:43:48.147Z,13.30
2023-03-04T17:46:18.250Z,12.40
2023-03-04T17:48:46.594Z,13.90
2023-03-04T17:51:14.799Z,13.20
2023-03-04T17:53:42.943Z,12.30
2023-03-04T17:56:11.260Z,12.30
2023-03-04T17:58:39.938Z,13.90
2023-03-04T18:01:13.962Z,13.80
2023-03-04T18:03:42.181Z,13.90
2023-03-04T18:06:10.121Z,13.40
2023-03-04T18:08:39.692Z,13.50
2023-03-04T18:11:08.170Z,13.70
2023-03-04T18:13:40.525Z,14.40
2023-03-04T18:16:09.595Z,13.80
2023-03-04T18:18:38.195Z,14.20
2023-03-04T18:21:08.346Z,14.50
2023-03-04T18:23:37.224Z,14.90
2023-03-04T18:26:05.674Z,13.70
2023-03-04T18:28:34.935Z,14.60
2023-03-04T18:31:03.798Z,13.00
2023-03-04T18:33:33.261Z,13.00
2023-03-04T18:36:02.558Z,13.60
2023-03-04T18:38:31.331Z,14.00
2023-03-04T18:41:00.936Z,13.70
2023-03-04T18:43:29.072Z,14.20
2023-03-04T18:46:06.016Z,15.20
2023-03-04T18:48:47.188Z,13.70
2023-03-04T18:51:15.967Z,13.90
2023-03-04T18:53:45.059Z,13.20
2023-03-04T18:56:18.922Z,14.00
2023-03-04T18:58:47.315Z,14.10
2023-03-04T19:01:16.901Z,13.70
2023-03-04T19:03:45.248Z,15.00
2023-03-04T19:06:13.450Z,15.80
2023-03-04T19:08:41.479Z,14.20
2023-03-04T19:11:09.809Z,15.50
2023-03-04T19:13:38.170Z,15.50
2023-03-04T19:16:06.900Z,15.00
2023-03-04T19:18:34.897Z,16.80
2023-03-04T19:21:05.187Z,15.50
2023-03-04T19:23:34.812Z,14.90
2023-03-04T19:26:03.808Z,15.10
2023-03-04T19:28:32.101Z,17.70
2023-03-04T19:31:06.109Z,17.30
2023-03-04T19:33:36.596Z,16.20
2023-03-04T19:36:05.374Z,16.30
2023-03-04T19:38:34.022Z,17.20
2023-03-04T19:41:16.053Z,15.10
2023-03-04T19:43:46.038Z,15.90
2023-03-04T19:46:15.172Z,16.70
2023-03-04T19:48:45.211Z,16.00
2023-03-04T19:51:21.167Z,17.80
2023-03-04T19:53:50.885Z,16.50
2023-03-04T19:56:20.064Z,16.10
2023-03-04T19:58:48.466Z,17.80
2023-03-04T20:01:30.929Z,17.00
2023-03-04T20:04:01.598Z,16.90
2023-03-04T20:06:30.552Z,18.40
2023-03-04T20:08:59.952Z,18.10
2023-03-04T20:11:28.537Z,17.60
2023-03-04T20:13:58.730Z,17.00
2023-03-04T20:16:26.759Z,18.00
2023-03-04T20:18:56.581Z,16.90
2023-03-04T20:21:27.759Z,17.10
2023-03-04T20:23:55.739Z,19.10
2023-03-04T20:26:24.038Z,18.60
2023-03-04T20:28:53.066Z,19.50
2023-03-04T20:31:26.671Z,18.10
2023-03-04T20:33:55.166Z,17.70
2023-03-04T20:36:25.304Z,11.70
2023-03-04T20:39:02.099Z,7.40
2023-03-04T20:41:32.960Z,6.00
2023-03-04T20:44:02.613Z,4.40
2023-03-04T20:46:38.141Z,3.80
2023-03-04T20:49:11.190Z,3.80
2023-03-04T20:51:41.292Z,3.50
2023-03-04T20:54:09.346Z,3.90
2023-03-04T20:56:39.444Z,3.30
2023-03-04T20:59:09.021Z,3.20
2023-03-04T21:01:38.500Z,3.10
2023-03-04T21:04:06.806Z,2.40
2023-03-04T21:06:36.304Z,2.70
2023-03-04T21:09:12.511Z,2.10
2023-03-04T21:11:42.733Z,2.20
2023-03-04T21:14:16.464Z,2.00
2023-03-04T21:16:46.442Z,2.10
2023-03-04T21:19:36.102Z,2.20
2023-03-04T21:22:07.909Z,1.70
2023-03-04T21:24:37.937Z,1.90
2023-03-04T21:27:08.154Z,1.90
2023-03-04T21:29:37.196Z,1.50
2023-03-04T21:32:22.868Z,1.50
2023-03-04T21:34:53.334Z,1.60
2023-03-04T21:37:21.931Z,1.30
2023-03-04T21:39:49.815Z,1.30
2023-03-04T21:42:18.222Z,1.50
2023-03-04T21:44:51.228Z,1.30
2023-03-04T21:47:24.528Z,1.20
2023-03-04T21:49:52.728Z,0.90
2023-03-04T21:52:21.046Z,1.50
2023-03-04T21:54:49.724Z,1.30
2023-03-04T21:57:19.343Z,1.00
2023-03-04T21:59:48.507Z,1.10
2023-03-04T22:02:18.678Z,1.10
2023-03-04T22:04:47.866Z,1.20
2023-03-04T22:07:16.379Z,1.10
2023-03-04T22:09:47.905Z,0.80
2023-03-04T22:12:17.657Z,1.30
2023-03-04T22:14:47.450Z,1.10
2023-03-04T22:17:15.638Z,0.90
2023-03-04T22:19:44.610Z,1.00
2023-03-04T22:22:12.946Z,1.40
2023-03-04T22:24:42.597Z,1.00
2023-03-04T22:27:11.792Z,1.60
2023-03-04T22:29:41.423Z,0.80
2023-03-04T22:32:09.726Z,0.90
2023-03-04T22:34:39.164Z,1.00
2023-03-04T22:37:08.157Z,0.90
2023-03-04T22:39:36.079Z,1.30
2023-03-04T22:42:05.558Z,0.90
2023-03-04T22:44:34.575Z,0.90
2023-03-04T22:47:04.200Z,0.80
2023-03-04T22:49:33.401Z,0.90
2023-03-04T22:52:07.230Z,1.20
2023-03-04T22:54:35.394Z,1.00
2023-03-04T22:57:03.488Z,0.80
2023-03-04T22:59:31.802Z,1.20
2023-03-04T23:02:03.692Z,0.80
2023-03-04T23:04:33.407Z,0.80
2023-03-04T23:07:01.358Z,1.20
2023-03-04T23:09:30.276Z,0.80
2023-03-04T23:11:58.270Z,0.80
2023-03-04T23:14:26.275Z,0.90
2023-03-04T23:16:55.488Z,1.20
2023-03-04T23:19:23.845Z,1.20
2023-03-04T23:21:51.910Z,1.20
2023-03-04T23:24:20.270Z,1.00
2023-03-04T23:26:48.317Z,1.10
2023-03-04T23:29:16.552Z,1.00
2023-03-04T23:31:44.720Z,0.70
2023-03-04T23:34:13.098Z,1.00
2023-03-04T23:36:42.053Z,1.00
2023-03-04T23:39:11.328Z,1.00
2023-03-04T23:41:41.462Z,0.80
2023-03-04T23:44:10.788Z,1.30
2023-03-04T23:46:42.910Z,0.80
2023-03-04T23:49:12.633Z,1.20
2023-03-04T23:51:41.011Z,1.10
2023-03-04T23:54:09.232Z,1.00
2023-03-04T23:56:37.479Z,0.90
2023-03-04T23:59:07.793Z,0.70
